Terminal Aerodrome Forecast
Issued by NWS Wilmington, OH

Current Version | Previous Version | Graphics & Text | Print | Product List | Glossary On
Versions: 1 2 3 4 5 6 7 8 9 10 11 12 13 14 15 16 17 18 19 20 21 22 23 24 25 26 27
000
FTUS41 KILN 251327 AAA
TAFCVG
TAF AMD
KCVG 251327Z 2513/2618 25007KT 2SM -SHRA BR FEW004 OVC007
     FM251500 29009KT P6SM VCSH OVC012
     FM252000 29012KT P6SM VCSH OVC025
     FM260000 29011KT P6SM OVC025
     FM260900 26005KT P6SM SCT025=

USA.gov is the U.S. government's official web portal to all federal, state and local government web resources and services.